Terminal Aerodrome Forecast
Issued by NWS

Home | Current Version | Previous Version | Graphics & Text | Print | Product List | Glossary On
Versions: 1 2 3 4 5 6 7 8 9 10 11 12 13 14 15
000
FTUS43 KMPX 201120
TAFRWF
TAF
KRWF 201120Z 2012/2112 15012KT P6SM SCT008
     FM201400 18014G20KT P6SM SCT080
     FM210100 17010KT P6SM FEW250=

USA.gov is the U.S. government's official web portal to all federal, state and local government web resources and services.